Time;durP1;ratioP1;P1;durP2;ratioP2;P2;SDS_P1;SDS_P2;PMS_P1;PMS_P2;Temp;Humidity;BMP_temperature;BMP_pressure;BME280_temperature;BME280_humidity;BME280_pressure;Samples;Min_cycle;Max_cycle;Signal;HPM_P1;HPM_P2
2023/05/12 00:02:23;;;;;;;;;2.00;2.00;;;;;21.61;36.23;101435.11;110019;1266;18866;-44
2023/05/12 00:04:51;;;;;;;;;1.50;1.50;;;;;21.61;36.21;101432.77;109975;1254;20826;-44
2023/05/12 00:07:18;;;;;;;;;1.00;1.00;;;;;21.61;36.15;101436.75;110020;1251;21082;-44
2023/05/12 00:09:46;;;;;;;;;1.00;1.00;;;;;21.61;36.30;101436.20;110006;1253;20043;-44
2023/05/12 00:12:13;;;;;;;;;2.00;2.00;;;;;21.61;36.24;101435.83;110045;1254;21836;-44
2023/05/12 00:14:40;;;;;;;;;2.00;2.00;;;;;21.62;36.35;101431.05;110001;1266;18591;-44
2023/05/12 00:17:08;;;;;;;;;1.00;1.00;;;;;21.61;36.24;101434.36;110041;1254;21188;-44
2023/05/12 00:19:36;;;;;;;;;1.00;1.00;;;;;21.61;36.27;101433.85;110049;1254;20906;-42
2023/05/12 00:22:03;;;;;;;;;1.50;1.00;;;;;21.61;36.41;101429.31;110042;1253;19590;-42
2023/05/12 00:24:31;;;;;;;;;4.00;4.00;;;;;21.60;36.20;101432.31;110103;1260;20013;-43
2023/05/12 00:26:58;;;;;;;;;2.00;2.00;;;;;21.61;36.27;101430.61;110185;1265;19383;-43
2023/05/12 00:29:26;;;;;;;;;1.00;1.00;;;;;21.61;36.33;101433.34;110206;1260;20846;-43
2023/05/12 00:31:53;;;;;;;;;1.00;1.00;;;;;21.60;36.53;101431.56;110221;1251;20049;-42
2023/05/12 00:34:20;;;;;;;;;1.00;1.00;;;;;21.60;36.22;101427.03;110204;1265;19402;-43
2023/05/12 00:36:47;;;;;;;;;2.00;2.00;;;;;21.61;36.43;101432.08;110200;1250;19612;-44
2023/05/12 00:39:15;;;;;;;;;1.00;1.00;;;;;21.61;36.49;101434.59;110200;1265;19826;-45
2023/05/12 00:41:43;;;;;;;;;2.00;1.50;;;;;21.61;36.38;101432.21;110176;1260;22777;-45
2023/05/12 00:44:11;;;;;;;;;1.33;1.00;;;;;21.61;36.38;101435.29;110111;1259;100138;-45
2023/05/12 00:46:39;;;;;;;;;2.00;2.00;;;;;21.61;36.26;101435.48;110187;1250;20227;-45
2023/05/12 00:49:06;;;;;;;;;1.00;1.00;;;;;21.61;36.33;101437.63;110188;1251;20788;-45
2023/05/12 00:51:33;;;;;;;;;1.00;1.00;;;;;21.61;36.57;101433.67;110157;1251;19596;-43
2023/05/12 00:54:01;;;;;;;;;1.00;1.00;;;;;21.61;36.46;101437.84;110210;1265;18607;-44
2023/05/12 00:56:28;;;;;;;;;1.00;1.00;;;;;21.61;36.33;101440.15;110215;1266;19362;-43
2023/05/12 00:58:56;;;;;;;;;1.00;1.00;;;;;21.61;36.24;101440.73;110202;1251;19612;-43
2023/05/12 01:01:23;;;;;;;;;1.00;1.00;;;;;21.61;36.52;101441.11;110193;1266;22659;-43
2023/05/12 01:03:50;;;;;;;;;2.00;2.00;;;;;21.61;36.44;101445.14;110228;1251;20798;-43
2023/05/12 01:06:18;;;;;;;;;1.00;1.00;;;;;21.61;36.48;101444.94;110196;1250;18417;-43
2023/05/12 01:08:45;;;;;;;;;1.00;1.00;;;;;21.61;36.34;101450.05;110199;1265;19977;-43
2023/05/12 01:11:12;;;;;;;;;1.00;1.00;;;;;21.62;36.36;101451.99;110222;1251;20822;-42
2023/05/12 01:13:40;;;;;;;;;1.00;1.00;;;;;21.61;36.43;101449.33;110238;1250;20809;-42
2023/05/12 01:16:07;;;;;;;;;1.00;1.00;;;;;21.61;36.35;101447.90;110249;1265;18592;-44
2023/05/12 01:18:35;;;;;;;;;1.00;1.00;;;;;21.61;36.43;101446.73;110266;1260;20658;-43
2023/05/12 01:21:02;;;;;;;;;1.00;1.00;;;;;21.60;36.27;101450.45;110165;1265;18453;-43
2023/05/12 01:23:30;;;;;;;;;1.50;1.50;;;;;21.61;36.38;101450.42;110192;1265;18636;-44
2023/05/12 01:25:58;;;;;;;;;1.00;1.00;;;;;21.60;36.53;101449.57;109995;1266;22495;-44
2023/05/12 01:28:26;;;;;;;;;1.00;1.00;;;;;21.60;36.55;101451.21;110044;1254;19683;-43
2023/05/12 01:30:53;;;;;;;;;2.00;2.00;;;;;21.60;36.44;101451.38;110011;1266;18583;-42
2023/05/12 01:33:20;;;;;;;;;1.00;1.00;;;;;21.60;36.45;101453.05;110037;1250;20908;-43
2023/05/12 01:35:48;;;;;;;;;1.00;1.00;;;;;21.60;36.54;101452.88;109999;1259;23023;-43
2023/05/12 01:38:15;;;;;;;;;1.00;1.00;;;;;21.60;36.51;101453.80;110034;1266;18609;-42
2023/05/12 01:40:42;;;;;;;;;1.00;1.00;;;;;21.60;36.45;101458.13;110034;1266;19349;-44
2023/05/12 01:43:10;;;;;;;;;1.00;1.00;;;;;21.60;36.43;101461.98;110014;1260;19514;-43
2023/05/12 01:45:37;;;;;;;;;1.00;1.00;;;;;21.61;36.50;101464.06;110028;1266;18635;-44
2023/05/12 01:48:04;;;;;;;;;1.00;1.00;;;;;21.60;36.45;101465.80;109923;1251;20839;-48
2023/05/12 01:50:32;;;;;;;;;1.00;1.00;;;;;21.60;36.44;101463.96;110085;1266;18422;-43
2023/05/12 01:52:59;;;;;;;;;1.00;1.00;;;;;21.59;36.49;101464.95;110041;1254;22560;-44
2023/05/12 01:55:27;;;;;;;;;1.00;1.00;;;;;21.59;36.55;101466.55;110046;1254;20837;-43
2023/05/12 01:57:54;;;;;;;;;1.00;1.00;;;;;21.59;36.39;101465.66;110053;1266;18693;-43
2023/05/12 02:00:21;;;;;;;;;1.00;1.00;;;;;21.60;36.55;101471.64;110074;1266;18719;-42
2023/05/12 02:02:49;;;;;;;;;1.00;1.00;;;;;21.59;36.55;101474.19;110053;1254;20830;-44
2023/05/12 02:05:16;;;;;;;;;1.00;1.00;;;;;21.59;36.70;101470.95;110023;1254;19701;-44
2023/05/12 02:07:43;;;;;;;;;2.00;2.00;;;;;21.59;36.48;101473.33;110027;1266;22329;-42
2023/05/12 02:10:10;;;;;;;;;2.00;2.00;;;;;21.59;36.50;101478.56;110002;1266;19375;-43
2023/05/12 02:12:38;;;;;;;;;1.67;1.67;;;;;21.58;36.64;101472.70;110037;1267;22529;-42
2023/05/12 02:15:06;;;;;;;;;1.00;1.00;;;;;21.59;36.51;101477.34;110038;1254;20042;-43
2023/05/12 02:17:33;;;;;;;;;1.00;1.00;;;;;21.59;36.57;101478.22;110029;1266;19393;-43
2023/05/12 02:20:00;;;;;;;;;1.00;1.00;;;;;21.59;36.38;101477.54;110031;1266;18403;-43
2023/05/12 02:22:28;;;;;;;;;1.00;1.00;;;;;21.59;36.53;101479.16;110052;1251;18617;-43
2023/05/12 02:24:55;;;;;;;;;1.00;1.00;;;;;21.58;36.48;101478.14;110078;1267;19465;-42
2023/05/12 02:27:22;;;;;;;;;1.00;1.00;;;;;21.59;36.73;101479.17;110059;1251;18394;-43
2023/05/12 02:29:50;;;;;;;;;1.00;1.00;;;;;21.58;36.50;101479.40;110052;1266;19928;-43
2023/05/12 02:32:17;;;;;;;;;1.00;1.00;;;;;21.58;36.68;101482.16;110045;1254;22687;-43
2023/05/12 02:34:46;;;;;;;;;3.00;2.00;;;;;21.59;36.40;101483.90;110012;1251;19642;-43
2023/05/12 02:37:13;;;;;;;;;1.00;1.00;;;;;21.59;36.58;101482.23;110032;1266;18652;-43
2023/05/12 02:39:40;;;;;;;;;1.00;1.00;;;;;21.59;36.47;101483.73;110007;1266;19233;-42
2023/05/12 02:42:08;;;;;;;;;1.00;1.00;;;;;21.59;36.51;101486.46;110019;1254;19590;-42
2023/05/12 02:44:35;;;;;;;;;1.00;1.00;;;;;21.58;36.61;101487.62;110034;1260;19606;-43
2023/05/12 02:47:03;;;;;;;;;1.00;1.00;;;;;21.59;36.50;101486.63;109990;1266;19455;-43
2023/05/12 02:49:31;;;;;;;;;1.00;1.00;;;;;21.58;36.47;101486.35;110010;1266;21963;-45
2023/05/12 02:51:58;;;;;;;;;1.00;1.00;;;;;21.57;36.69;101487.30;110026;1253;20037;-44
2023/05/12 02:54:25;;;;;;;;;1.00;1.00;;;;;21.57;36.59;101490.95;109991;1266;19439;-43
2023/05/12 02:56:53;;;;;;;;;2.00;2.00;;;;;21.58;36.50;101489.11;110000;1266;18359;-42
2023/05/12 02:59:20;;;;;;;;;1.00;1.00;;;;;21.57;36.62;101484.25;109991;1266;18645;-43
2023/05/12 03:01:48;;;;;;;;;1.00;1.00;;;;;21.57;36.57;101488.64;109980;1254;20968;-44
2023/05/12 03:04:15;;;;;;;;;2.00;2.00;;;;;21.57;36.49;101489.34;110069;1266;19646;-44
2023/05/12 03:06:42;;;;;;;;;1.00;1.00;;;;;21.57;36.50;101493.54;110086;1254;19983;-42
2023/05/12 03:09:10;;;;;;;;;2.00;2.00;;;;;21.56;36.65;101489.95;110043;1260;20709;-43
2023/05/12 03:11:37;;;;;;;;;1.00;1.00;;;;;21.57;36.50;101495.52;110052;1266;18611;-44
2023/05/12 03:14:04;;;;;;;;;1.00;1.00;;;;;21.57;36.75;101492.06;110051;1254;22936;-44
2023/05/12 03:16:32;;;;;;;;;1.50;1.00;;;;;21.57;36.71;101496.44;109991;1266;19378;-44
2023/05/12 03:18:59;;;;;;;;;1.00;1.00;;;;;21.57;36.74;101494.25;110055;1266;18525;-44
2023/05/12 03:21:27;;;;;;;;;1.00;1.00;;;;;21.57;36.63;101492.96;110079;1266;18987;-43
2023/05/12 03:23:55;;;;;;;;;1.00;1.00;;;;;21.56;36.69;101489.95;110046;1254;20764;-44
2023/05/12 03:26:22;;;;;;;;;1.00;1.00;;;;;21.58;36.54;101494.86;110040;1266;18451;-42
2023/05/12 03:28:50;;;;;;;;;2.00;1.00;;;;;21.57;36.71;101496.61;110029;1266;18717;-43
2023/05/12 03:31:17;;;;;;;;;1.00;1.00;;;;;21.58;36.63;101496.91;109973;1266;22799;-43
2023/05/12 03:33:44;;;;;;;;;1.00;1.00;;;;;21.58;36.48;101497.46;110025;1251;19646;-44
2023/05/12 03:36:12;;;;;;;;;1.33;1.33;;;;;21.58;36.77;101500.68;110003;1251;23132;-42
2023/05/12 03:38:39;;;;;;;;;2.00;2.00;;;;;21.57;36.58;101498.23;109993;1253;20740;-43
2023/05/12 03:41:06;;;;;;;;;1.00;1.00;;;;;21.58;36.57;101506.14;110029;1254;19644;-42
2023/05/12 03:43:34;;;;;;;;;2.00;2.00;;;;;21.58;36.64;101504.50;110013;1251;23165;-43
2023/05/12 03:46:02;;;;;;;;;1.00;1.00;;;;;21.58;36.68;101503.26;110018;1251;22216;-43
2023/05/12 03:48:29;;;;;;;;;2.00;1.00;;;;;21.59;36.73;101508.80;110025;1253;19924;-44
2023/05/12 03:50:57;;;;;;;;;1.00;1.00;;;;;21.58;36.69;101506.48;110017;1266;18626;-45
2023/05/12 03:53:24;;;;;;;;;1.00;1.00;;;;;21.59;36.67;101513.67;110049;1260;20566;-45
2023/05/12 03:55:51;;;;;;;;;1.00;1.00;;;;;21.59;36.75;101516.74;110038;1266;18571;-43
2023/05/12 03:58:19;;;;;;;;;2.00;1.00;;;;;21.59;36.63;101519.00;110009;1266;18653;-42
2023/05/12 04:00:48;;;;;;;;;2.00;1.00;;;;;21.59;36.68;101522.24;110013;1266;21926;-43
2023/05/12 04:03:15;;;;;;;;;2.00;2.00;;;;;21.59;36.70;101524.45;110025;1266;18437;-43
2023/05/12 04:05:43;;;;;;;;;1.00;1.00;;;;;21.58;36.63;101527.05;110042;1253;18652;-42
2023/05/12 04:08:10;;;;;;;;;1.00;1.00;;;;;21.58;36.55;101526.34;110047;1251;21973;-43
2023/05/12 04:10:38;;;;;;;;;2.00;2.00;;;;;21.59;36.67;101531.56;109977;1253;19683;-43
2023/05/12 04:13:05;;;;;;;;;2.00;2.00;;;;;21.60;36.76;101534.20;109905;1266;18642;-43
2023/05/12 04:15:32;;;;;;;;;1.00;1.00;;;;;21.59;36.75;101533.89;110022;1267;22790;-43
2023/05/12 04:18:00;;;;;;;;;1.00;1.00;;;;;21.59;36.82;101535.40;109952;1266;18416;-43
2023/05/12 04:20:27;;;;;;;;;2.00;2.00;;;;;21.59;36.65;101537.89;109976;1254;22600;-43
2023/05/12 04:22:55;;;;;;;;;1.00;1.00;;;;;21.59;36.73;101539.55;110049;1254;20756;-43
2023/05/12 04:25:23;;;;;;;;;2.00;2.00;;;;;21.58;36.64;101535.48;110018;1266;18514;-41
2023/05/12 04:27:50;;;;;;;;;1.00;1.00;;;;;21.59;36.63;101539.94;110012;1254;20132;-43
2023/05/12 04:30:17;;;;;;;;;1.00;1.00;;;;;21.59;36.86;101543.55;110016;1253;21973;-45
2023/05/12 04:32:44;;;;;;;;;2.00;2.00;;;;;21.60;36.94;101540.85;110037;1266;18452;-43
2023/05/12 04:35:12;;;;;;;;;2.00;2.00;;;;;21.64;37.08;101541.75;110015;1266;18674;-44
2023/05/12 04:37:39;;;;;;;;;1.67;1.67;;;;;21.65;37.37;101545.29;110030;1266;19387;-45
2023/05/12 04:40:07;;;;;;;;;10.00;10.00;;;;;21.67;37.62;101545.46;110031;1254;19785;-43
2023/05/12 04:42:35;;;;;;;;;63.00;52.50;;;;;21.72;38.84;101545.27;110014;1267;18703;-43
2023/05/12 04:45:02;;;;;;;;;48.00;46.00;;;;;21.76;39.62;101547.71;109998;1261;19375;-44
2023/05/12 04:47:29;;;;;;;;;61.00;48.00;;;;;21.79;40.47;101549.19;110004;1266;18588;-44
2023/05/12 04:49:57;;;;;;;;;42.00;39.00;;;;;21.82;41.18;101552.55;110037;1260;18959;-44
2023/05/12 04:52:24;;;;;;;;;40.00;38.00;;;;;21.86;41.21;101554.27;110056;1260;20829;-45
2023/05/12 04:54:52;;;;;;;;;29.00;28.00;;;;;21.85;41.01;101556.41;109991;1251;18531;-44
2023/05/12 04:57:19;;;;;;;;;29.00;28.00;;;;;21.82;40.83;101558.38;109971;1266;18766;-45
2023/05/12 04:59:47;;;;;;;;;29.00;27.00;;;;;21.77;40.58;101567.44;109948;1250;19346;-43
2023/05/12 05:02:14;;;;;;;;;21.00;21.00;;;;;21.69;39.69;101567.44;110036;1266;18619;-43
2023/05/12 05:04:41;;;;;;;;;23.00;21.00;;;;;21.62;38.96;101564.73;110031;1266;18715;-43
2023/05/12 05:07:09;;;;;;;;;18.00;17.00;;;;;21.59;38.50;101567.90;110000;1250;19261;-43
2023/05/12 05:09:36;;;;;;;;;17.00;17.00;;;;;21.56;38.13;101567.32;110049;1254;22427;-45
2023/05/12 05:12:03;;;;;;;;;17.00;17.00;;;;;21.55;38.03;101565.42;110031;1254;20157;-43
2023/05/12 05:14:30;;;;;;;;;15.00;14.00;;;;;21.48;37.32;101573.05;110013;1266;22022;-43
2023/05/12 05:16:58;;;;;;;;;15.50;14.50;;;;;21.04;36.35;101570.16;110027;1266;18651;-44
2023/05/12 05:19:26;;;;;;;;;18.00;15.33;;;;;21.08;36.10;101571.25;110060;1251;20199;-44
2023/05/12 05:21:53;;;;;;;;;17.00;16.00;;;;;21.09;35.61;101573.64;110064;1266;19701;-44
2023/05/12 05:24:20;;;;;;;;;18.00;18.00;;;;;20.87;35.08;101576.90;110041;1254;22731;-44
2023/05/12 05:26:48;;;;;;;;;14.00;14.00;;;;;20.64;35.13;101572.00;110007;1254;20185;-45
2023/05/12 05:29:16;;;;;;;;;16.00;16.00;;;;;20.82;34.85;101574.27;110049;1251;19345;-49
2023/05/12 05:31:43;;;;;;;;;13.00;13.00;;;;;20.81;34.55;101574.95;110021;1266;22556;-44
2023/05/12 05:34:10;;;;;;;;;17.00;16.00;;;;;20.76;34.51;101574.18;110048;1254;20030;-44
2023/05/12 05:36:38;;;;;;;;;16.00;14.00;;;;;20.79;34.47;101576.80;110065;1251;19313;-45
2023/05/12 05:39:05;;;;;;;;;16.00;13.00;;;;;20.80;34.19;101581.98;110028;1266;20179;-48
2023/05/12 05:41:32;;;;;;;;;16.00;14.00;;;;;20.67;34.27;101579.48;110067;1260;20297;-45
2023/05/12 05:44:00;;;;;;;;;16.00;16.00;;;;;20.65;34.32;101577.17;110050;1266;19378;-43
2023/05/12 05:46:27;;;;;;;;;22.00;18.67;;;;;20.73;34.06;101579.56;110026;1251;20058;-44
2023/05/12 05:48:55;;;;;;;;;18.33;16.33;;;;;20.63;33.96;101579.84;110048;1251;20164;-43
2023/05/12 05:51:22;;;;;;;;;14.00;13.00;;;;;20.54;34.00;101578.43;110029;1266;22605;-44
2023/05/12 05:53:49;;;;;;;;;12.50;12.00;;;;;20.56;33.90;101583.27;110028;1253;20378;-44
2023/05/12 05:56:17;;;;;;;;;13.00;11.00;;;;;20.63;33.75;101583.50;110073;1251;21372;-44
2023/05/12 05:58:44;;;;;;;;;17.00;15.00;;;;;20.84;33.87;101586.79;110045;1254;20964;-45
2023/05/12 06:01:12;;;;;;;;;11.00;11.00;;;;;20.95;33.93;101588.36;110003;1266;18608;-44
2023/05/12 06:03:39;;;;;;;;;14.00;14.00;;;;;20.97;33.68;101591.29;110051;1266;18701;-44
2023/05/12 06:06:07;;;;;;;;;14.00;13.00;;;;;20.97;33.58;101592.22;110033;1250;20714;-45
2023/05/12 06:08:34;;;;;;;;;13.00;13.00;;;;;20.70;33.63;101592.96;110018;1266;18568;-47
2023/05/12 06:11:01;;;;;;;;;16.50;14.50;;;;;20.60;33.83;101595.59;110040;1266;20076;-44
2023/05/12 06:13:29;;;;;;;;;14.00;14.00;;;;;20.75;33.64;101595.67;110235;1250;21314;-44
2023/05/12 06:15:56;;;;;;;;;15.00;13.00;;;;;20.80;33.49;101597.92;110208;1266;18606;-44
2023/05/12 06:18:23;;;;;;;;;13.00;13.00;;;;;20.89;33.58;101604.30;110173;1251;20180;-44
2023/05/12 06:20:51;;;;;;;;;;;;;;;20.92;33.43;101602.02;110181;1251;20546;-44
2023/05/12 06:23:18;;;;;;;;;13.00;13.00;;;;;20.93;33.34;101601.35;110278;1265;18567;-45
2023/05/12 06:25:45;;;;;;;;;13.00;13.00;;;;;21.02;33.48;101606.21;110246;1249;18686;-45
2023/05/12 06:28:13;;;;;;;;;13.00;11.00;;;;;21.02;33.58;101611.81;110248;1251;21305;-44
2023/05/12 06:30:40;;;;;;;;;12.33;11.67;;;;;21.07;33.33;101614.07;110176;1265;18634;-42
2023/05/12 06:33:07;;;;;;;;;13.00;13.00;;;;;21.08;33.41;101617.38;110191;1249;18691;-44
2023/05/12 06:35:35;;;;;;;;;14.00;13.00;;;;;21.13;33.42;101616.77;110208;1265;19317;-44
2023/05/12 06:38:02;;;;;;;;;12.00;12.00;;;;;20.99;33.29;101617.78;110189;1259;18562;-44
2023/05/12 06:40:29;;;;;;;;;17.00;17.00;;;;;20.92;33.39;101618.67;110187;1251;20127;-50
2023/05/12 06:42:57;;;;;;;;;17.00;14.00;;;;;20.96;33.51;101619.18;110193;1265;19724;-44
2023/05/12 06:45:24;;;;;;;;;13.00;11.00;;;;;21.01;33.26;101621.06;110160;1251;22548;-44
2023/05/12 06:47:51;;;;;;;;;13.00;13.00;;;;;20.96;33.23;101619.20;110218;1250;20027;-45
2023/05/12 06:50:19;;;;;;;;;11.00;10.00;;;;;20.91;33.18;101620.81;110206;1265;19411;-44
2023/05/12 06:52:46;;;;;;;;;16.00;14.00;;;;;21.06;33.30;101626.02;110197;1251;21160;-45
2023/05/12 06:55:18;;;;;;;;;12.00;11.00;;;;;21.14;33.10;101624.05;110185;1265;20788;-45
2023/05/12 06:57:45;;;;;;;;;13.00;13.00;;;;;21.17;33.30;101624.70;110262;1265;19426;-44
2023/05/12 07:00:12;;;;;;;;;16.00;13.00;;;;;21.15;33.30;101621.60;110224;1265;22264;-44
2023/05/12 07:02:40;;;;;;;;;13.50;13.50;;;;;21.14;33.30;101615.89;110151;1265;19160;-45
2023/05/12 07:05:08;;;;;;;;;13.00;13.00;;;;;21.10;33.41;101618.09;110203;1265;19438;-44
2023/05/12 07:07:35;;;;;;;;;15.00;13.50;;;;;21.18;33.40;101617.66;110188;1265;18650;-45
2023/05/12 07:10:03;;;;;;;;;14.00;14.00;;;;;21.16;33.31;101618.23;110183;1251;20302;-44
2023/05/12 07:12:31;;;;;;;;;13.00;13.00;;;;;21.16;33.27;101615.56;110161;1251;20785;-45
2023/05/12 07:14:58;;;;;;;;;15.00;14.00;;;;;21.23;33.41;101617.70;110220;1251;20022;-44
2023/05/12 07:17:27;;;;;;;;;11.00;10.00;;;;;21.20;33.22;101616.73;110162;1257;18738;-44
2023/05/12 07:19:55;;;;;;;;;13.00;13.00;;;;;21.27;33.19;101618.13;110226;1251;20831;-47
2023/05/12 07:22:23;;;;;;;;;12.00;12.00;;;;;21.32;33.05;101620.56;110243;1266;18799;-44
2023/05/12 07:24:50;;;;;;;;;11.00;10.00;;;;;21.38;33.11;101621.63;110170;1251;20212;-44
2023/05/12 07:27:17;;;;;;;;;13.00;11.67;;;;;21.38;33.22;101621.83;110188;1251;20767;-44
2023/05/12 07:29:45;;;;;;;;;10.50;10.00;;;;;21.30;33.27;101621.66;110208;1265;22335;-45
2023/05/12 07:32:12;;;;;;;;;11.00;10.00;;;;;21.32;33.07;101619.08;110218;1251;20114;-44
2023/05/12 07:34:39;;;;;;;;;10.00;10.00;;;;;21.36;33.13;101621.48;110229;1251;22161;-47
2023/05/12 07:37:06;;;;;;;;;13.00;11.00;;;;;21.37;32.93;101616.44;110243;1251;19999;-45
2023/05/12 07:39:34;;;;;;;;;13.00;10.00;;;;;21.39;33.13;101619.17;110239;1251;18926;-44
2023/05/12 07:42:01;;;;;;;;;10.50;10.50;;;;;21.40;33.21;101620.68;110182;1265;19503;-44
2023/05/12 07:44:29;;;;;;;;;13.00;13.00;;;;;21.39;33.00;101621.67;110197;1250;20056;-44
2023/05/12 07:46:57;;;;;;;;;11.00;10.50;;;;;21.42;33.08;101624.09;110205;1265;19173;-44
2023/05/12 07:49:24;;;;;;;;;9.00;9.00;;;;;21.44;33.26;101623.34;110202;1265;20913;-44
2023/05/12 07:51:51;;;;;;;;;10.50;10.50;;;;;21.46;33.34;101624.39;110200;1265;18577;-44
2023/05/12 07:54:18;;;;;;;;;11.00;11.00;;;;;21.48;33.54;101620.39;110197;1265;18656;-44
2023/05/12 07:56:46;;;;;;;;;11.00;11.00;;;;;21.52;33.60;101620.70;110208;1251;20783;-45
2023/05/12 07:59:14;;;;;;;;;13.00;13.00;;;;;21.50;33.49;101617.24;110238;1265;18569;-44
2023/05/12 08:01:41;;;;;;;;;11.00;11.00;;;;;21.46;33.60;101621.34;110211;1251;20040;-44
2023/05/12 08:04:09;;;;;;;;;13.00;11.00;;;;;21.42;33.64;101621.13;110156;1251;22750;-45
2023/05/12 08:06:36;;;;;;;;;11.00;11.00;;;;;21.40;33.44;101620.29;110040;1254;20110;-44
2023/05/12 08:09:04;;;;;;;;;13.33;12.33;;;;;21.47;33.82;101617.88;110021;1251;20134;-44
2023/05/12 08:11:31;;;;;;;;;14.00;13.00;;;;;21.49;33.50;101615.95;110030;1254;20833;-44
2023/05/12 08:13:59;;;;;;;;;11.00;10.00;;;;;21.48;33.30;101636.75;110024;1260;19859;-44
2023/05/12 08:16:26;;;;;;;;;13.00;11.00;;;;;21.42;32.97;101621.69;110000;1266;20088;-45
2023/05/12 08:18:53;;;;;;;;;10.33;10.33;;;;;21.41;32.84;101622.23;110040;1251;19384;-43
2023/05/12 08:21:21;;;;;;;;;12.33;12.33;;;;;21.42;32.43;101613.95;110061;1266;19932;-45
2023/05/12 08:23:48;;;;;;;;;13.00;11.00;;;;;21.43;32.27;101624.40;110024;1266;18684;-45
2023/05/12 08:26:15;;;;;;;;;11.00;11.00;;;;;21.42;32.06;101625.95;110018;1267;22736;-44
2023/05/12 08:28:43;;;;;;;;;12.00;11.00;;;;;21.26;31.54;101619.51;110070;1266;18584;-44
2023/05/12 08:31:10;;;;;;;;;13.50;12.00;;;;;21.30;31.54;101615.84;110049;1253;20126;-44
2023/05/12 08:33:37;;;;;;;;;10.00;10.00;;;;;21.39;31.55;101618.58;110029;1266;19583;-46
2023/05/12 08:36:05;;;;;;;;;8.00;8.00;;;;;21.44;31.60;101615.71;110029;1266;21352;-44
2023/05/12 08:38:32;;;;;;;;;13.00;11.00;;;;;21.42;31.37;101611.88;110044;1254;20043;-44
2023/05/12 08:41:00;;;;;;;;;11.00;11.00;;;;;21.39;31.53;101608.75;110060;1253;21723;-45
2023/05/12 08:43:28;;;;;;;;;13.00;11.00;;;;;21.37;31.51;101614.02;110040;1254;20012;-45
2023/05/12 08:45:57;;;;;;;;;13.00;11.00;;;;;21.38;31.58;101617.77;110042;1250;20121;-42
2023/05/12 08:48:24;;;;;;;;;10.67;10.67;;;;;21.41;31.44;101599.27;110026;1266;19359;-42
2023/05/12 08:50:51;;;;;;;;;11.00;11.00;;;;;21.44;31.39;101610.59;110035;1266;22212;-41
2023/05/12 08:53:19;;;;;;;;;11.00;10.00;;;;;21.40;30.77;101606.10;110045;1266;20044;-41
2023/05/12 08:55:46;;;;;;;;;10.00;10.00;;;;;21.38;30.36;101605.40;110026;1266;21998;-42
2023/05/12 08:58:13;;;;;;;;;10.00;10.00;;;;;21.42;30.43;101607.55;110054;1254;20028;-41
2023/05/12 09:00:41;;;;;;;;;11.00;10.00;;;;;21.44;30.52;101604.86;110036;1251;20151;-41
2023/05/12 09:03:08;;;;;;;;;11.00;8.00;;;;;21.43;30.24;101599.77;110015;1266;22219;-42
2023/05/12 09:05:35;;;;;;;;;10.50;10.00;;;;;21.46;30.05;101601.48;110120;1265;18659;-42
2023/05/12 09:08:02;;;;;;;;;8.00;8.00;;;;;21.45;30.02;101599.92;110117;1259;20011;-42
2023/05/12 09:10:30;;;;;;;;;8.00;8.00;;;;;21.38;29.52;101607.00;110238;1266;19429;-41
2023/05/12 09:12:57;;;;;;;;;10.00;8.00;;;;;21.30;29.08;101604.27;110273;1266;18228;-42
2023/05/12 09:15:24;;;;;;;;;11.00;11.00;;;;;21.26;28.95;101601.88;110261;1266;18580;-45
2023/05/12 09:17:52;;;;;;;;;11.00;9.00;;;;;21.27;28.92;101607.27;110250;1251;20945;-41
2023/05/12 09:20:19;;;;;;;;;12.33;8.00;;;;;21.28;28.47;101605.73;110235;1265;22337;-43
2023/05/12 09:22:46;;;;;;;;;8.00;8.00;;;;;21.08;28.05;101598.09;110267;1265;18811;-42
2023/05/12 09:25:14;;;;;;;;;12.00;10.50;;;;;21.09;28.01;101607.64;110291;1260;20802;-41
2023/05/12 09:27:41;;;;;;;;;13.00;10.00;;;;;21.14;27.92;101609.17;110252;1265;19636;-42
2023/05/12 09:30:09;;;;;;;;;11.00;10.00;;;;;21.13;28.09;101599.86;110230;1257;20042;-41
2023/05/12 09:32:36;;;;;;;;;11.00;8.00;;;;;21.19;28.41;101594.81;110269;1251;21789;-41
2023/05/12 09:35:05;;;;;;;;;8.00;8.00;;;;;21.24;28.33;101598.48;110265;1265;18660;-41
2023/05/12 09:37:32;;;;;;;;;10.00;10.00;;;;;21.30;28.67;101594.48;110249;1265;18629;-41
2023/05/12 09:40:00;;;;;;;;;8.00;8.00;;;;;21.25;28.49;101593.11;110254;1251;19375;-42
2023/05/12 09:42:27;;;;;;;;;11.00;10.00;;;;;21.30;28.80;101591.51;110293;1251;20233;-42
2023/05/12 09:44:55;;;;;;;;;8.00;8.00;;;;;21.34;28.83;101596.02;110249;1265;18729;-42
2023/05/12 09:47:22;;;;;;;;;10.00;10.00;;;;;21.35;29.06;101597.31;110246;1265;20167;-41
2023/05/12 09:49:49;;;;;;;;;11.00;11.00;;;;;21.40;29.09;101592.91;110236;1265;19628;-42
2023/05/12 09:52:17;;;;;;;;;11.00;11.00;;;;;21.27;28.87;101591.27;110243;1251;18657;-41
2023/05/12 09:54:44;;;;;;;;;8.00;8.00;;;;;21.17;28.62;101580.67;110271;1251;20740;-42
2023/05/12 09:57:12;;;;;;;;;10.00;9.00;;;;;21.16;28.59;101585.31;110235;1250;20084;-40
2023/05/12 09:59:40;;;;;;;;;11.00;10.00;;;;;21.19;28.59;101601.59;110254;1265;18623;-42
2023/05/12 10:02:07;;;;;;;;;11.00;11.00;;;;;21.18;28.53;101593.36;110201;1251;20686;-42
2023/05/12 10:04:38;;;;;;;;;8.67;8.67;;;;;21.12;28.67;101597.02;110209;1251;19970;-42
2023/05/12 10:07:05;;;;;;;;;10.00;10.00;;;;;21.18;28.95;101593.70;110260;1265;18584;-41
2023/05/12 10:09:33;;;;;;;;;10.00;10.00;;;;;21.26;29.10;101580.95;110220;1250;20958;-40
2023/05/12 10:12:01;;;;;;;;;10.67;10.00;;;;;21.30;29.21;101594.99;110232;1265;19929;-42
2023/05/12 10:14:28;;;;;;;;;12.00;10.00;;;;;21.33;29.44;101585.02;110237;1260;19954;-42
2023/05/12 10:16:55;;;;;;;;;11.00;11.00;;;;;21.40;29.58;101582.54;110192;1265;19402;-41
2023/05/12 10:19:23;;;;;;;;;11.00;10.00;;;;;21.42;29.84;101590.10;110248;1257;18612;-41
2023/05/12 10:21:50;;;;;;;;;11.00;11.00;;;;;21.37;29.67;101590.40;110223;1261;18694;-41
2023/05/12 10:24:17;;;;;;;;;10.00;10.00;;;;;21.29;29.75;101586.15;110241;1251;22509;-43
2023/05/12 10:26:45;;;;;;;;;10.00;9.00;;;;;21.28;29.57;101575.05;110218;1250;20057;-42
2023/05/12 10:29:12;;;;;;;;;10.00;8.00;;;;;21.26;29.68;101581.77;110258;1265;18548;-41
2023/05/12 10:31:40;;;;;;;;;8.00;8.00;;;;;21.27;29.40;101589.77;110266;1250;19505;-42
2023/05/12 10:34:07;;;;;;;;;12.00;11.00;;;;;21.28;29.18;101579.94;110236;1251;22099;-41
2023/05/12 10:36:35;;;;;;;;;10.00;10.00;;;;;21.29;28.84;101575.73;110219;1250;20329;-42
2023/05/12 10:39:02;;;;;;;;;11.00;11.00;;;;;21.28;28.64;101581.70;110209;1251;20816;-42
2023/05/12 10:41:30;;;;;;;;;10.00;10.00;;;;;21.28;28.61;101585.31;110257;1257;18577;-42
2023/05/12 10:43:57;;;;;;;;;10.00;10.00;;;;;21.31;28.67;101583.20;110214;1250;20162;-42
2023/05/12 10:46:25;;;;;;;;;8.00;8.00;;;;;21.32;28.56;101579.80;110202;1251;19401;-42
2023/05/12 10:48:53;;;;;;;;;10.50;9.00;;;;;21.34;28.71;101580.86;110292;1257;19957;-41
2023/05/12 10:51:21;;;;;;;;;10.00;10.00;;;;;21.36;28.91;101587.66;110249;1265;18657;-41
2023/05/12 10:53:49;;;;;;;;;11.00;10.00;;;;;21.37;29.16;101590.98;110207;1265;19477;-42
2023/05/12 10:56:16;;;;;;;;;11.00;11.00;;;;;21.37;29.36;101578.80;110258;1265;18748;-42
2023/05/12 10:58:44;;;;;;;;;11.00;10.00;;;;;21.41;29.50;101575.08;110239;1250;23311;-41
2023/05/12 11:01:12;;;;;;;;;10.00;10.00;;;;;21.43;29.71;101587.10;110215;1251;19670;-42
2023/05/12 11:03:40;;;;;;;;;10.00;10.00;;;;;21.42;29.80;101580.63;110177;1257;19318;-42
2023/05/12 11:06:08;;;;;;;;;8.00;7.00;;;;;21.44;29.91;101581.75;110258;1257;22175;-42
2023/05/12 11:08:35;;;;;;;;;10.00;10.00;;;;;21.43;29.85;101582.56;110208;1251;21860;-42
2023/05/12 11:11:02;;;;;;;;;11.00;11.00;;;;;21.38;29.84;101577.73;110142;1251;19619;-41